sensor_id;sensor_type;location;lat;lon;timestamp;P1;durP1;ratioP1;P2;durP2;ratioP2
32108;SDS011;18624;50.042;8.436;2023-03-03T00:01:13;24.05;;;13.63;;
32108;SDS011;18624;50.042;8.436;2023-03-03T00:03:40;27.20;;;14.70;;
32108;SDS011;18624;50.042;8.436;2023-03-03T00:06:08;28.38;;;16.58;;
32108;SDS011;18624;50.042;8.436;2023-03-03T00:08:36;28.77;;;16.00;;
32108;SDS011;18624;50.042;8.436;2023-03-03T00:11:03;29.00;;;17.08;;
32108;SDS011;18624;50.042;8.436;2023-03-03T00:13:32;22.40;;;13.77;;
32108;SDS011;18624;50.042;8.436;2023-03-03T00:18:52;22.25;;;13.70;;
32108;SDS011;18624;50.042;8.436;2023-03-03T00:21:26;24.73;;;14.07;;
32108;SDS011;18624;50.042;8.436;2023-03-03T00:26:46;24.58;;;13.77;;
32108;SDS011;18624;50.042;8.436;2023-03-03T00:29:34;24.48;;;14.05;;
32108;SDS011;18624;50.042;8.436;2023-03-03T00:34:42;24.77;;;13.35;;
32108;SDS011;18624;50.042;8.436;2023-03-03T00:39:57;24.77;;;13.20;;
32108;SDS011;18624;50.042;8.436;2023-03-03T00:42:38;20.38;;;11.77;;
32108;SDS011;18624;50.042;8.436;2023-03-03T00:48:18;20.67;;;11.40;;
32108;SDS011;18624;50.042;8.436;2023-03-03T00:50:45;22.60;;;12.32;;
32108;SDS011;18624;50.042;8.436;2023-03-03T00:53:18;19.23;;;10.27;;
32108;SDS011;18624;50.042;8.436;2023-03-03T00:55:46;19.85;;;11.82;;
32108;SDS011;18624;50.042;8.436;2023-03-03T00:58:15;20.05;;;11.77;;
32108;SDS011;18624;50.042;8.436;2023-03-03T01:00:45;21.42;;;11.50;;
32108;SDS011;18624;50.042;8.436;2023-03-03T01:03:15;22.25;;;11.52;;
32108;SDS011;18624;50.042;8.436;2023-03-03T01:05:44;22.27;;;12.32;;
32108;SDS011;18624;50.042;8.436;2023-03-03T01:08:11;19.33;;;11.23;;
32108;SDS011;18624;50.042;8.436;2023-03-03T01:10:41;22.30;;;12.25;;
32108;SDS011;18624;50.042;8.436;2023-03-03T01:13:12;21.35;;;11.65;;
32108;SDS011;18624;50.042;8.436;2023-03-03T01:15:38;21.88;;;12.32;;
32108;SDS011;18624;50.042;8.436;2023-03-03T01:18:06;20.42;;;11.15;;
32108;SDS011;18624;50.042;8.436;2023-03-03T01:20:33;21.15;;;12.10;;
32108;SDS011;18624;50.042;8.436;2023-03-03T01:22:59;20.15;;;11.85;;
32108;SDS011;18624;50.042;8.436;2023-03-03T01:25:26;21.00;;;11.85;;
32108;SDS011;18624;50.042;8.436;2023-03-03T01:27:52;20.85;;;12.02;;
32108;SDS011;18624;50.042;8.436;2023-03-03T01:30:19;22.17;;;12.07;;
32108;SDS011;18624;50.042;8.436;2023-03-03T01:32:46;19.80;;;11.27;;
32108;SDS011;18624;50.042;8.436;2023-03-03T01:35:13;22.83;;;12.70;;
32108;SDS011;18624;50.042;8.436;2023-03-03T01:37:39;20.73;;;12.10;;
32108;SDS011;18624;50.042;8.436;2023-03-03T01:40:06;25.05;;;12.23;;
32108;SDS011;18624;50.042;8.436;2023-03-03T01:42:38;21.85;;;12.15;;
32108;SDS011;18624;50.042;8.436;2023-03-03T01:45:12;20.08;;;11.38;;
32108;SDS011;18624;50.042;8.436;2023-03-03T01:47:57;19.63;;;11.50;;
32108;SDS011;18624;50.042;8.436;2023-03-03T01:52:58;22.80;;;11.98;;
32108;SDS011;18624;50.042;8.436;2023-03-03T01:55:33;19.83;;;11.77;;
32108;SDS011;18624;50.042;8.436;2023-03-03T02:01:03;22.98;;;12.15;;
32108;SDS011;18624;50.042;8.436;2023-03-03T02:03:33;21.92;;;12.27;;
32108;SDS011;18624;50.042;8.436;2023-03-03T02:06:02;20.63;;;11.48;;
32108;SDS011;18624;50.042;8.436;2023-03-03T02:08:35;20.27;;;11.57;;
32108;SDS011;18624;50.042;8.436;2023-03-03T02:11:12;22.30;;;11.82;;
32108;SDS011;18624;50.042;8.436;2023-03-03T02:13:41;23.30;;;11.82;;
32108;SDS011;18624;50.042;8.436;2023-03-03T02:16:07;23.67;;;12.77;;
32108;SDS011;18624;50.042;8.436;2023-03-03T02:18:34;19.88;;;12.25;;
32108;SDS011;18624;50.042;8.436;2023-03-03T02:21:02;22.27;;;13.18;;
32108;SDS011;18624;50.042;8.436;2023-03-03T02:26:25;24.30;;;13.48;;
32108;SDS011;18624;50.042;8.436;2023-03-03T02:28:58;24.00;;;12.63;;
32108;SDS011;18624;50.042;8.436;2023-03-03T02:31:27;24.45;;;12.38;;
32108;SDS011;18624;50.042;8.436;2023-03-03T02:33:56;25.25;;;13.75;;
32108;SDS011;18624;50.042;8.436;2023-03-03T02:36:24;24.67;;;12.80;;
32108;SDS011;18624;50.042;8.436;2023-03-03T02:39:04;24.33;;;12.10;;
32108;SDS011;18624;50.042;8.436;2023-03-03T02:44:31;21.95;;;11.75;;
32108;SDS011;18624;50.042;8.436;2023-03-03T02:46:58;19.45;;;11.55;;
32108;SDS011;18624;50.042;8.436;2023-03-03T02:49:27;22.30;;;12.73;;
32108;SDS011;18624;50.042;8.436;2023-03-03T02:51:56;21.70;;;12.98;;
32108;SDS011;18624;50.042;8.436;2023-03-03T02:54:24;23.98;;;13.02;;
32108;SDS011;18624;50.042;8.436;2023-03-03T02:56:53;20.63;;;12.02;;
32108;SDS011;18624;50.042;8.436;2023-03-03T02:59:19;22.63;;;12.32;;
32108;SDS011;18624;50.042;8.436;2023-03-03T03:01:47;23.77;;;13.15;;
32108;SDS011;18624;50.042;8.436;2023-03-03T03:04:18;24.73;;;13.45;;
32108;SDS011;18624;50.042;8.436;2023-03-03T03:06:48;22.73;;;13.02;;
32108;SDS011;18624;50.042;8.436;2023-03-03T03:09:16;25.20;;;12.85;;
32108;SDS011;18624;50.042;8.436;2023-03-03T03:11:44;24.90;;;13.30;;
32108;SDS011;18624;50.042;8.436;2023-03-03T03:14:13;24.23;;;13.32;;
32108;SDS011;18624;50.042;8.436;2023-03-03T03:16:40;22.75;;;12.35;;
32108;SDS011;18624;50.042;8.436;2023-03-03T03:19:07;25.08;;;13.35;;
32108;SDS011;18624;50.042;8.436;2023-03-03T03:21:35;24.45;;;12.13;;
32108;SDS011;18624;50.042;8.436;2023-03-03T03:24:03;24.23;;;12.88;;
32108;SDS011;18624;50.042;8.436;2023-03-03T03:26:31;25.50;;;14.32;;
32108;SDS011;18624;50.042;8.436;2023-03-03T03:28:58;25.17;;;14.05;;
32108;SDS011;18624;50.042;8.436;2023-03-03T03:31:24;27.05;;;14.93;;
32108;SDS011;18624;50.042;8.436;2023-03-03T03:33:51;29.67;;;15.30;;
32108;SDS011;18624;50.042;8.436;2023-03-03T03:36:19;25.98;;;14.85;;
32108;SDS011;18624;50.042;8.436;2023-03-03T03:38:47;24.65;;;14.68;;
32108;SDS011;18624;50.042;8.436;2023-03-03T03:41:13;28.23;;;15.38;;
32108;SDS011;18624;50.042;8.436;2023-03-03T03:43:41;29.30;;;15.50;;
32108;SDS011;18624;50.042;8.436;2023-03-03T03:46:07;24.40;;;14.25;;
32108;SDS011;18624;50.042;8.436;2023-03-03T03:48:34;23.77;;;13.77;;
32108;SDS011;18624;50.042;8.436;2023-03-03T03:51:03;22.92;;;12.85;;
32108;SDS011;18624;50.042;8.436;2023-03-03T03:53:30;23.63;;;13.30;;
32108;SDS011;18624;50.042;8.436;2023-03-03T03:55:57;25.00;;;14.30;;
32108;SDS011;18624;50.042;8.436;2023-03-03T03:58:24;22.83;;;13.10;;
32108;SDS011;18624;50.042;8.436;2023-03-03T04:01:00;25.30;;;14.00;;
32108;SDS011;18624;50.042;8.436;2023-03-03T04:03:28;25.45;;;14.60;;
32108;SDS011;18624;50.042;8.436;2023-03-03T04:05:55;25.00;;;14.40;;
32108;SDS011;18624;50.042;8.436;2023-03-03T04:08:22;26.25;;;14.25;;
32108;SDS011;18624;50.042;8.436;2023-03-03T04:10:48;24.40;;;13.15;;
32108;SDS011;18624;50.042;8.436;2023-03-03T04:13:15;23.42;;;13.02;;
32108;SDS011;18624;50.042;8.436;2023-03-03T04:15:41;23.02;;;14.35;;
32108;SDS011;18624;50.042;8.436;2023-03-03T04:18:08;45.88;;;24.65;;
32108;SDS011;18624;50.042;8.436;2023-03-03T04:20:34;34.28;;;19.05;;
32108;SDS011;18624;50.042;8.436;2023-03-03T04:23:01;27.20;;;14.15;;
32108;SDS011;18624;50.042;8.436;2023-03-03T04:25:29;26.58;;;14.55;;
32108;SDS011;18624;50.042;8.436;2023-03-03T04:27:56;27.52;;;14.35;;
32108;SDS011;18624;50.042;8.436;2023-03-03T04:30:24;26.58;;;14.55;;
32108;SDS011;18624;50.042;8.436;2023-03-03T04:32:54;26.73;;;14.43;;
32108;SDS011;18624;50.042;8.436;2023-03-03T04:35:23;23.67;;;14.07;;
32108;SDS011;18624;50.042;8.436;2023-03-03T04:37:51;24.70;;;14.50;;
32108;SDS011;18624;50.042;8.436;2023-03-03T04:40:18;26.42;;;15.13;;
32108;SDS011;18624;50.042;8.436;2023-03-03T04:42:47;28.42;;;14.50;;
32108;SDS011;18624;50.042;8.436;2023-03-03T04:45:14;26.73;;;15.10;;
32108;SDS011;18624;50.042;8.436;2023-03-03T04:47:40;26.38;;;14.32;;
32108;SDS011;18624;50.042;8.436;2023-03-03T04:50:08;28.15;;;14.63;;
32108;SDS011;18624;50.042;8.436;2023-03-03T04:52:35;30.42;;;16.05;;
32108;SDS011;18624;50.042;8.436;2023-03-03T04:55:03;30.42;;;16.83;;
32108;SDS011;18624;50.042;8.436;2023-03-03T04:57:30;30.98;;;15.68;;
32108;SDS011;18624;50.042;8.436;2023-03-03T04:59:57;30.38;;;17.38;;
32108;SDS011;18624;50.042;8.436;2023-03-03T05:02:24;31.15;;;17.80;;
32108;SDS011;18624;50.042;8.436;2023-03-03T05:04:50;31.48;;;19.13;;
32108;SDS011;18624;50.042;8.436;2023-03-03T05:07:17;31.38;;;18.88;;
32108;SDS011;18624;50.042;8.436;2023-03-03T05:09:45;31.85;;;19.05;;
32108;SDS011;18624;50.042;8.436;2023-03-03T05:12:11;35.90;;;20.80;;
32108;SDS011;18624;50.042;8.436;2023-03-03T05:14:37;32.63;;;19.42;;
32108;SDS011;18624;50.042;8.436;2023-03-03T05:17:04;37.15;;;20.83;;
32108;SDS011;18624;50.042;8.436;2023-03-03T05:19:31;31.63;;;18.90;;
32108;SDS011;18624;50.042;8.436;2023-03-03T05:21:57;36.83;;;20.98;;
32108;SDS011;18624;50.042;8.436;2023-03-03T05:24:23;33.75;;;19.83;;
32108;SDS011;18624;50.042;8.436;2023-03-03T05:26:50;32.97;;;19.30;;
32108;SDS011;18624;50.042;8.436;2023-03-03T05:29:16;31.48;;;18.60;;
32108;SDS011;18624;50.042;8.436;2023-03-03T05:31:43;34.67;;;19.08;;
32108;SDS011;18624;50.042;8.436;2023-03-03T05:34:10;35.17;;;18.70;;
32108;SDS011;18624;50.042;8.436;2023-03-03T05:36:37;32.78;;;18.13;;
32108;SDS011;18624;50.042;8.436;2023-03-03T05:39:03;33.67;;;19.77;;
32108;SDS011;18624;50.042;8.436;2023-03-03T05:41:30;32.03;;;17.50;;
32108;SDS011;18624;50.042;8.436;2023-03-03T05:43:56;34.38;;;19.35;;
32108;SDS011;18624;50.042;8.436;2023-03-03T05:46:23;36.67;;;20.30;;
32108;SDS011;18624;50.042;8.436;2023-03-03T05:48:49;35.10;;;20.08;;
32108;SDS011;18624;50.042;8.436;2023-03-03T05:51:15;38.10;;;21.80;;
32108;SDS011;18624;50.042;8.436;2023-03-03T05:53:42;36.10;;;20.95;;
32108;SDS011;18624;50.042;8.436;2023-03-03T05:56:08;42.03;;;23.40;;
32108;SDS011;18624;50.042;8.436;2023-03-03T05:58:35;43.05;;;26.17;;
32108;SDS011;18624;50.042;8.436;2023-03-03T06:01:01;44.35;;;25.38;;
32108;SDS011;18624;50.042;8.436;2023-03-03T06:03:28;47.33;;;25.90;;
32108;SDS011;18624;50.042;8.436;2023-03-03T06:05:54;43.10;;;24.88;;
32108;SDS011;18624;50.042;8.436;2023-03-03T06:08:20;41.25;;;24.33;;
32108;SDS011;18624;50.042;8.436;2023-03-03T06:10:47;46.30;;;26.17;;
32108;SDS011;18624;50.042;8.436;2023-03-03T06:13:14;45.17;;;26.00;;
32108;SDS011;18624;50.042;8.436;2023-03-03T06:15:40;45.03;;;25.23;;
32108;SDS011;18624;50.042;8.436;2023-03-03T06:18:07;41.65;;;25.10;;
32108;SDS011;18624;50.042;8.436;2023-03-03T06:20:34;42.45;;;23.25;;
32108;SDS011;18624;50.042;8.436;2023-03-03T06:23:01;41.67;;;23.63;;
32108;SDS011;18624;50.042;8.436;2023-03-03T06:25:28;40.05;;;24.15;;
32108;SDS011;18624;50.042;8.436;2023-03-03T06:27:54;46.25;;;26.08;;
32108;SDS011;18624;50.042;8.436;2023-03-03T06:30:21;45.45;;;26.20;;
32108;SDS011;18624;50.042;8.436;2023-03-03T06:32:47;42.35;;;25.50;;
32108;SDS011;18624;50.042;8.436;2023-03-03T06:35:14;45.38;;;26.17;;
32108;SDS011;18624;50.042;8.436;2023-03-03T06:37:40;48.28;;;28.00;;
32108;SDS011;18624;50.042;8.436;2023-03-03T06:40:07;50.55;;;28.95;;
32108;SDS011;18624;50.042;8.436;2023-03-03T06:42:34;51.58;;;28.45;;
32108;SDS011;18624;50.042;8.436;2023-03-03T06:45:00;57.10;;;31.70;;
32108;SDS011;18624;50.042;8.436;2023-03-03T06:47:26;57.50;;;30.27;;
32108;SDS011;18624;50.042;8.436;2023-03-03T06:49:53;53.42;;;28.33;;
32108;SDS011;18624;50.042;8.436;2023-03-03T06:52:23;52.70;;;31.17;;
32108;SDS011;18624;50.042;8.436;2023-03-03T06:54:55;52.10;;;28.07;;
32108;SDS011;18624;50.042;8.436;2023-03-03T06:59:56;47.17;;;28.33;;
32108;SDS011;18624;50.042;8.436;2023-03-03T07:02:27;51.80;;;27.60;;
32108;SDS011;18624;50.042;8.436;2023-03-03T07:04:54;51.72;;;27.58;;
32108;SDS011;18624;50.042;8.436;2023-03-03T07:07:23;53.00;;;28.33;;
32108;SDS011;18624;50.042;8.436;2023-03-03T07:09:52;45.53;;;27.80;;
32108;SDS011;18624;50.042;8.436;2023-03-03T07:12:29;54.63;;;31.13;;
32108;SDS011;18624;50.042;8.436;2023-03-03T07:17:44;53.20;;;29.35;;
32108;SDS011;18624;50.042;8.436;2023-03-03T07:20:20;52.53;;;30.65;;
32108;SDS011;18624;50.042;8.436;2023-03-03T07:25:21;52.45;;;28.38;;
32108;SDS011;18624;50.042;8.436;2023-03-03T07:27:57;52.13;;;29.70;;
32108;SDS011;18624;50.042;8.436;2023-03-03T07:30:27;52.00;;;28.88;;
32108;SDS011;18624;50.042;8.436;2023-03-03T07:32:56;51.85;;;30.42;;
32108;SDS011;18624;50.042;8.436;2023-03-03T07:38:22;56.08;;;30.33;;
32108;SDS011;18624;50.042;8.436;2023-03-03T07:40:51;52.25;;;28.70;;
32108;SDS011;18624;50.042;8.436;2023-03-03T07:48:48;54.70;;;31.33;;
32108;SDS011;18624;50.042;8.436;2023-03-03T07:59:37;52.30;;;29.13;;
32108;SDS011;18624;50.042;8.436;2023-03-03T08:02:16;53.97;;;30.08;;
32108;SDS011;18624;50.042;8.436;2023-03-03T08:05:00;58.97;;;31.05;;
32108;SDS011;18624;50.042;8.436;2023-03-03T08:07:30;63.85;;;31.95;;
32108;SDS011;18624;50.042;8.436;2023-03-03T08:09:57;61.17;;;30.60;;
32108;SDS011;18624;50.042;8.436;2023-03-03T08:12:40;57.47;;;29.70;;
32108;SDS011;18624;50.042;8.436;2023-03-03T08:15:20;60.65;;;29.75;;
32108;SDS011;18624;50.042;8.436;2023-03-03T08:17:52;58.13;;;29.75;;
32108;SDS011;18624;50.042;8.436;2023-03-03T08:20:30;55.10;;;30.77;;
32108;SDS011;18624;50.042;8.436;2023-03-03T08:23:07;52.45;;;28.88;;
32108;SDS011;18624;50.042;8.436;2023-03-03T08:25:34;55.38;;;28.02;;
32108;SDS011;18624;50.042;8.436;2023-03-03T08:28:00;57.00;;;29.08;;
32108;SDS011;18624;50.042;8.436;2023-03-03T08:30:26;57.00;;;28.52;;
32108;SDS011;18624;50.042;8.436;2023-03-03T08:32:53;56.03;;;29.63;;
32108;SDS011;18624;50.042;8.436;2023-03-03T08:35:19;56.22;;;30.63;;
32108;SDS011;18624;50.042;8.436;2023-03-03T08:37:46;50.33;;;27.13;;
32108;SDS011;18624;50.042;8.436;2023-03-03T08:40:12;54.33;;;29.73;;
32108;SDS011;18624;50.042;8.436;2023-03-03T08:42:39;56.35;;;27.27;;
32108;SDS011;18624;50.042;8.436;2023-03-03T08:45:06;49.63;;;26.75;;
32108;SDS011;18624;50.042;8.436;2023-03-03T08:47:32;51.53;;;26.52;;
32108;SDS011;18624;50.042;8.436;2023-03-03T08:49:59;50.63;;;27.58;;
32108;SDS011;18624;50.042;8.436;2023-03-03T08:52:25;51.22;;;27.08;;
32108;SDS011;18624;50.042;8.436;2023-03-03T08:54:51;47.30;;;25.98;;
32108;SDS011;18624;50.042;8.436;2023-03-03T08:57:19;50.00;;;26.45;;
32108;SDS011;18624;50.042;8.436;2023-03-03T08:59:45;46.97;;;26.10;;
32108;SDS011;18624;50.042;8.436;2023-03-03T09:02:12;50.42;;;26.75;;
32108;SDS011;18624;50.042;8.436;2023-03-03T09:04:39;52.65;;;25.92;;
32108;SDS011;18624;50.042;8.436;2023-03-03T09:07:05;49.05;;;26.70;;
32108;SDS011;18624;50.042;8.436;2023-03-03T09:09:32;46.65;;;26.80;;
32108;SDS011;18624;50.042;8.436;2023-03-03T09:12:00;51.90;;;28.77;;
32108;SDS011;18624;50.042;8.436;2023-03-03T09:14:38;48.75;;;26.73;;
32108;SDS011;18624;50.042;8.436;2023-03-03T09:17:07;51.60;;;26.80;;
32108;SDS011;18624;50.042;8.436;2023-03-03T09:20:49;50.70;;;26.05;;
32108;SDS011;18624;50.042;8.436;2023-03-03T09:23:15;47.97;;;25.40;;
32108;SDS011;18624;50.042;8.436;2023-03-03T09:26:13;44.63;;;25.52;;
32108;SDS011;18624;50.042;8.436;2023-03-03T09:28:40;46.55;;;24.27;;
32108;SDS011;18624;50.042;8.436;2023-03-03T09:31:16;44.42;;;25.13;;
32108;SDS011;18624;50.042;8.436;2023-03-03T09:33:49;47.97;;;25.58;;
32108;SDS011;18624;50.042;8.436;2023-03-03T09:36:35;45.50;;;26.13;;
32108;SDS011;18624;50.042;8.436;2023-03-03T09:39:24;46.63;;;26.00;;
32108;SDS011;18624;50.042;8.436;2023-03-03T09:45:01;44.40;;;27.00;;
32108;SDS011;18624;50.042;8.436;2023-03-03T09:47:46;48.67;;;26.45;;
32108;SDS011;18624;50.042;8.436;2023-03-03T10:03:57;34.20;;;19.25;;
32108;SDS011;18624;50.042;8.436;2023-03-03T10:06:55;44.03;;;24.15;;
32108;SDS011;18624;50.042;8.436;2023-03-03T10:12:43;42.67;;;24.60;;
32108;SDS011;18624;50.042;8.436;2023-03-03T10:18:28;47.05;;;26.30;;
32108;SDS011;18624;50.042;8.436;2023-03-03T10:23:39;48.30;;;27.02;;
32108;SDS011;18624;50.042;8.436;2023-03-03T10:27:09;45.03;;;24.45;;
32108;SDS011;18624;50.042;8.436;2023-03-03T10:32:36;46.92;;;26.05;;
32108;SDS011;18624;50.042;8.436;2023-03-03T10:35:17;42.75;;;23.60;;
32108;SDS011;18624;50.042;8.436;2023-03-03T10:41:06;44.40;;;24.58;;
32108;SDS011;18624;50.042;8.436;2023-03-03T10:46:31;41.90;;;24.40;;
32108;SDS011;18624;50.042;8.436;2023-03-03T10:52:10;39.35;;;22.88;;
32108;SDS011;18624;50.042;8.436;2023-03-03T10:55:04;42.63;;;23.02;;
32108;SDS011;18624;50.042;8.436;2023-03-03T10:57:46;42.33;;;23.50;;
32108;SDS011;18624;50.042;8.436;2023-03-03T11:03:44;41.22;;;22.92;;
32108;SDS011;18624;50.042;8.436;2023-03-03T11:06:53;42.03;;;23.63;;
32108;SDS011;18624;50.042;8.436;2023-03-03T11:09:33;43.72;;;23.55;;
32108;SDS011;18624;50.042;8.436;2023-03-03T11:12:28;39.42;;;20.90;;
32108;SDS011;18624;50.042;8.436;2023-03-03T11:17:55;39.58;;;20.48;;
32108;SDS011;18624;50.042;8.436;2023-03-03T11:20:35;42.63;;;23.48;;
32108;SDS011;18624;50.042;8.436;2023-03-03T11:26:02;38.20;;;19.77;;
32108;SDS011;18624;50.042;8.436;2023-03-03T11:28:54;37.40;;;21.10;;
32108;SDS011;18624;50.042;8.436;2023-03-03T11:31:46;37.63;;;20.38;;
32108;SDS011;18624;50.042;8.436;2023-03-03T11:37:07;37.47;;;19.98;;
32108;SDS011;18624;50.042;8.436;2023-03-03T11:39:37;38.00;;;20.23;;
32108;SDS011;18624;50.042;8.436;2023-03-03T11:44:56;39.03;;;20.73;;
32108;SDS011;18624;50.042;8.436;2023-03-03T11:50:38;39.00;;;20.30;;
32108;SDS011;18624;50.042;8.436;2023-03-03T11:53:24;34.78;;;19.90;;
32108;SDS011;18624;50.042;8.436;2023-03-03T11:56:43;30.98;;;18.38;;
32108;SDS011;18624;50.042;8.436;2023-03-03T11:59:04;34.60;;;19.30;;
32108;SDS011;18624;50.042;8.436;2023-03-03T12:01:35;38.38;;;19.13;;
32108;SDS011;18624;50.042;8.436;2023-03-03T12:04:43;33.13;;;18.13;;
32108;SDS011;18624;50.042;8.436;2023-03-03T12:07:45;33.42;;;19.15;;
32108;SDS011;18624;50.042;8.436;2023-03-03T12:10:41;36.28;;;18.60;;
32108;SDS011;18624;50.042;8.436;2023-03-03T12:16:09;30.60;;;18.50;;
32108;SDS011;18624;50.042;8.436;2023-03-03T12:24:07;30.48;;;17.55;;
32108;SDS011;18624;50.042;8.436;2023-03-03T12:29:40;32.75;;;18.30;;
32108;SDS011;18624;50.042;8.436;2023-03-03T12:32:19;33.75;;;18.50;;
32108;SDS011;18624;50.042;8.436;2023-03-03T12:35:03;35.10;;;18.10;;
32108;SDS011;18624;50.042;8.436;2023-03-03T12:37:46;31.20;;;17.13;;
32108;SDS011;18624;50.042;8.436;2023-03-03T12:40:27;29.30;;;16.20;;
32108;SDS011;18624;50.042;8.436;2023-03-03T12:43:01;31.27;;;18.52;;
32108;SDS011;18624;50.042;8.436;2023-03-03T12:48:43;30.52;;;17.65;;
32108;SDS011;18624;50.042;8.436;2023-03-03T12:54:23;37.50;;;18.67;;
32108;SDS011;18624;50.042;8.436;2023-03-03T12:59:48;33.20;;;18.83;;
32108;SDS011;18624;50.042;8.436;2023-03-03T13:05:22;30.30;;;16.65;;
32108;SDS011;18624;50.042;8.436;2023-03-03T13:13:56;31.75;;;18.40;;
32108;SDS011;18624;50.042;8.436;2023-03-03T13:19:14;26.73;;;15.95;;
32108;SDS011;18624;50.042;8.436;2023-03-03T13:22:07;30.85;;;16.70;;
32108;SDS011;18624;50.042;8.436;2023-03-03T13:24:44;30.27;;;17.02;;
32108;SDS011;18624;50.042;8.436;2023-03-03T13:27:36;31.00;;;16.92;;
32108;SDS011;18624;50.042;8.436;2023-03-03T13:30:25;28.45;;;15.88;;
32108;SDS011;18624;50.042;8.436;2023-03-03T13:32:56;27.98;;;16.45;;
32108;SDS011;18624;50.042;8.436;2023-03-03T13:38:17;32.15;;;17.95;;
32108;SDS011;18624;50.042;8.436;2023-03-03T13:40:47;31.55;;;17.52;;
32108;SDS011;18624;50.042;8.436;2023-03-03T13:43:21;29.77;;;17.33;;
32108;SDS011;18624;50.042;8.436;2023-03-03T13:51:20;30.52;;;17.15;;
32108;SDS011;18624;50.042;8.436;2023-03-03T13:59:35;29.42;;;16.35;;
32108;SDS011;18624;50.042;8.436;2023-03-03T14:05:00;30.33;;;18.38;;
32108;SDS011;18624;50.042;8.436;2023-03-03T14:07:31;29.73;;;18.08;;
32108;SDS011;18624;50.042;8.436;2023-03-03T14:12:46;28.35;;;15.50;;
32108;SDS011;18624;50.042;8.436;2023-03-03T14:15:26;25.90;;;16.27;;
32108;SDS011;18624;50.042;8.436;2023-03-03T14:20:57;31.10;;;17.02;;
32108;SDS011;18624;50.042;8.436;2023-03-03T14:26:13;27.65;;;16.50;;
32108;SDS011;18624;50.042;8.436;2023-03-03T14:28:43;27.77;;;15.57;;
32108;SDS011;18624;50.042;8.436;2023-03-03T14:31:21;27.95;;;16.38;;
32108;SDS011;18624;50.042;8.436;2023-03-03T14:34:01;25.98;;;15.38;;
32108;SDS011;18624;50.042;8.436;2023-03-03T14:36:49;30.77;;;17.40;;
32108;SDS011;18624;50.042;8.436;2023-03-03T14:39:35;36.58;;;21.50;;
32108;SDS011;18624;50.042;8.436;2023-03-03T14:42:14;37.53;;;23.88;;
32108;SDS011;18624;50.042;8.436;2023-03-03T14:44:56;32.33;;;18.60;;
32108;SDS011;18624;50.042;8.436;2023-03-03T14:47:26;36.75;;;23.65;;
32108;SDS011;18624;50.042;8.436;2023-03-03T14:49:54;31.83;;;20.23;;
32108;SDS011;18624;50.042;8.436;2023-03-03T14:52:25;35.95;;;23.77;;
32108;SDS011;18624;50.042;8.436;2023-03-03T14:54:54;37.88;;;24.30;;
32108;SDS011;18624;50.042;8.436;2023-03-03T15:00:43;38.78;;;23.80;;
32108;SDS011;18624;50.042;8.436;2023-03-03T15:05:47;33.50;;;22.48;;
32108;SDS011;18624;50.042;8.436;2023-03-03T15:08:27;35.38;;;21.35;;
32108;SDS011;18624;50.042;8.436;2023-03-03T15:11:10;29.48;;;19.88;;
32108;SDS011;18624;50.042;8.436;2023-03-03T15:13:43;31.90;;;21.02;;
32108;SDS011;18624;50.042;8.436;2023-03-03T15:16:11;29.33;;;20.67;;
32108;SDS011;18624;50.042;8.436;2023-03-03T15:21:58;34.15;;;21.45;;
32108;SDS011;18624;50.042;8.436;2023-03-03T15:27:18;32.50;;;20.90;;
32108;SDS011;18624;50.042;8.436;2023-03-03T15:32:55;27.92;;;18.38;;
32108;SDS011;18624;50.042;8.436;2023-03-03T15:35:42;27.30;;;15.90;;
32108;SDS011;18624;50.042;8.436;2023-03-03T15:38:43;25.00;;;14.30;;
32108;SDS011;18624;50.042;8.436;2023-03-03T15:41:17;25.75;;;14.75;;
32108;SDS011;18624;50.042;8.436;2023-03-03T15:43:59;29.50;;;16.15;;
32108;SDS011;18624;50.042;8.436;2023-03-03T15:46:48;24.13;;;14.13;;
32108;SDS011;18624;50.042;8.436;2023-03-03T15:49:40;24.63;;;15.20;;
32108;SDS011;18624;50.042;8.436;2023-03-03T15:52:27;23.92;;;13.52;;
32108;SDS011;18624;50.042;8.436;2023-03-03T15:55:01;26.30;;;14.25;;
32108;SDS011;18624;50.042;8.436;2023-03-03T15:57:44;23.33;;;12.75;;
32108;SDS011;18624;50.042;8.436;2023-03-03T16:03:32;20.25;;;11.68;;
32108;SDS011;18624;50.042;8.436;2023-03-03T16:06:21;20.60;;;11.48;;
32108;SDS011;18624;50.042;8.436;2023-03-03T16:09:07;21.05;;;12.48;;
32108;SDS011;18624;50.042;8.436;2023-03-03T16:11:48;18.83;;;10.65;;
32108;SDS011;18624;50.042;8.436;2023-03-03T16:19:42;20.20;;;11.70;;
32108;SDS011;18624;50.042;8.436;2023-03-03T16:22:55;21.80;;;10.60;;
32108;SDS011;18624;50.042;8.436;2023-03-03T16:28:09;20.80;;;10.75;;
32108;SDS011;18624;50.042;8.436;2023-03-03T16:30:54;17.90;;;8.65;;
32108;SDS011;18624;50.042;8.436;2023-03-03T16:35:54;19.42;;;11.00;;
32108;SDS011;18624;50.042;8.436;2023-03-03T16:38:35;23.10;;;11.52;;
32108;SDS011;18624;50.042;8.436;2023-03-03T16:41:10;20.55;;;9.75;;
32108;SDS011;18624;50.042;8.436;2023-03-03T16:43:46;19.65;;;10.00;;
32108;SDS011;18624;50.042;8.436;2023-03-03T16:46:32;20.30;;;11.35;;
32108;SDS011;18624;50.042;8.436;2023-03-03T16:51:49;21.73;;;10.67;;
32108;SDS011;18624;50.042;8.436;2023-03-03T17:11:06;20.17;;;10.75;;
32108;SDS011;18624;50.042;8.436;2023-03-03T17:16:39;17.15;;;9.75;;
32108;SDS011;18624;50.042;8.436;2023-03-03T17:24:47;16.67;;;9.00;;
32108;SDS011;18624;50.042;8.436;2023-03-03T17:30:21;19.00;;;10.50;;
32108;SDS011;18624;50.042;8.436;2023-03-03T17:41:04;17.98;;;9.95;;
32108;SDS011;18624;50.042;8.436;2023-03-03T17:52:05;19.42;;;10.23;;
32108;SDS011;18624;50.042;8.436;2023-03-03T17:54:48;19.42;;;9.82;;
32108;SDS011;18624;50.042;8.436;2023-03-03T18:00:09;18.88;;;10.20;;
32108;SDS011;18624;50.042;8.436;2023-03-03T18:02:50;20.55;;;11.02;;
32108;SDS011;18624;50.042;8.436;2023-03-03T18:10:42;25.00;;;12.13;;
32108;SDS011;18624;50.042;8.436;2023-03-03T18:15:51;24.05;;;12.95;;
32108;SDS011;18624;50.042;8.436;2023-03-03T18:18:47;24.67;;;12.13;;
32108;SDS011;18624;50.042;8.436;2023-03-03T18:23:44;30.65;;;17.05;;
32108;SDS011;18624;50.042;8.436;2023-03-03T18:31:44;33.05;;;17.88;;
32108;SDS011;18624;50.042;8.436;2023-03-03T18:34:35;27.98;;;14.25;;
32108;SDS011;18624;50.042;8.436;2023-03-03T18:37:31;30.48;;;15.38;;
32108;SDS011;18624;50.042;8.436;2023-03-03T18:42:38;33.45;;;17.50;;
32108;SDS011;18624;50.042;8.436;2023-03-03T18:45:10;31.48;;;17.67;;
32108;SDS011;18624;50.042;8.436;2023-03-03T18:47:58;32.53;;;19.15;;
32108;SDS011;18624;50.042;8.436;2023-03-03T18:50:34;39.00;;;20.48;;
32108;SDS011;18624;50.042;8.436;2023-03-03T18:53:07;52.65;;;25.25;;
32108;SDS011;18624;50.042;8.436;2023-03-03T18:55:40;64.32;;;29.27;;
32108;SDS011;18624;50.042;8.436;2023-03-03T19:00:51;68.82;;;33.25;;
32108;SDS011;18624;50.042;8.436;2023-03-03T19:03:30;41.80;;;21.90;;
32108;SDS011;18624;50.042;8.436;2023-03-03T19:07:06;34.92;;;19.25;;
32108;SDS011;18624;50.042;8.436;2023-03-03T19:09:01;33.60;;;19.08;;
32108;SDS011;18624;50.042;8.436;2023-03-03T19:14:13;32.53;;;18.55;;
32108;SDS011;18624;50.042;8.436;2023-03-03T19:16:43;33.03;;;18.83;;
32108;SDS011;18624;50.042;8.436;2023-03-03T19:19:11;32.53;;;19.20;;
32108;SDS011;18624;50.042;8.436;2023-03-03T19:21:43;33.25;;;19.77;;